createdAt,value
2023-02-11T00:00:59.117Z,98.09
2023-02-11T00:03:26.311Z,98.55
2023-02-11T00:06:05.034Z,98.46
2023-02-11T00:08:31.632Z,98.37
2023-02-11T00:10:58.532Z,98.68
2023-02-11T00:13:25.626Z,98.63
2023-02-11T00:15:52.570Z,98.99
2023-02-11T00:18:19.121Z,98.73
2023-02-11T00:20:45.523Z,98.90
2023-02-11T00:23:12.117Z,98.77
2023-02-11T00:25:42.958Z,98.91
2023-02-11T00:28:10.626Z,98.74
2023-02-11T00:30:37.694Z,98.77
2023-02-11T00:33:04.316Z,99.01
2023-02-11T00:35:30.772Z,98.76
2023-02-11T00:37:57.209Z,99.04
2023-02-11T00:40:23.695Z,99.19
2023-02-11T00:42:50.114Z,99.27
2023-02-11T00:45:16.501Z,99.20
2023-02-11T00:47:43.166Z,99.35
2023-02-11T00:50:09.654Z,99.44
2023-02-11T00:52:36.158Z,99.13
2023-02-11T00:55:02.630Z,99.34
2023-02-11T00:57:29.076Z,99.30
2023-02-11T00:59:55.473Z,99.78
2023-02-11T01:02:21.902Z,99.63
2023-02-11T01:04:48.458Z,99.79
2023-02-11T01:07:14.987Z,99.93
2023-02-11T01:09:41.351Z,100.00
2023-02-11T01:12:07.769Z,99.57
2023-02-11T01:14:34.253Z,100.00
2023-02-11T01:17:00.635Z,100.00
2023-02-11T01:19:27.053Z,100.00
2023-02-11T01:21:53.417Z,100.00
2023-02-11T01:24:19.810Z,100.00
2023-02-11T01:26:46.216Z,100.00
2023-02-11T01:29:12.732Z,100.00
2023-02-11T01:31:39.314Z,100.00
2023-02-11T01:34:05.841Z,100.00
2023-02-11T01:36:32.436Z,100.00
2023-02-11T01:38:58.849Z,100.00
2023-02-11T01:41:25.324Z,100.00
2023-02-11T01:43:51.729Z,100.00
2023-02-11T01:46:33.535Z,100.00
2023-02-11T01:49:14.789Z,100.00
2023-02-11T01:52:03.485Z,100.00
2023-02-11T01:54:55.662Z,100.00
2023-02-11T01:57:26.157Z,100.00
2023-02-11T02:00:01.266Z,100.00
2023-02-11T02:02:37.407Z,100.00
2023-02-11T02:05:22.148Z,100.00
2023-02-11T02:08:01.318Z,100.00
2023-02-11T02:10:28.884Z,100.00
2023-02-11T02:12:55.876Z,100.00
2023-02-11T02:15:29.369Z,100.00
2023-02-11T02:18:16.533Z,100.00
2023-02-11T02:21:02.157Z,100.00
2023-02-11T02:23:51.611Z,100.00
2023-02-11T02:26:56.628Z,100.00
2023-02-11T02:29:51.146Z,100.00
2023-02-11T02:32:36.399Z,100.00
2023-02-11T02:35:15.478Z,100.00
2023-02-11T02:37:57.154Z,100.00
2023-02-11T02:40:29.434Z,100.00
2023-02-11T02:42:57.691Z,100.00
2023-02-11T02:45:24.326Z,100.00
2023-02-11T02:47:50.758Z,100.00
2023-02-11T02:50:25.213Z,100.00
2023-02-11T02:53:07.647Z,100.00
2023-02-11T02:55:51.855Z,100.00
2023-02-11T02:58:30.781Z,100.00
2023-02-11T03:01:14.437Z,100.00
2023-02-11T03:04:13.410Z,100.00
2023-02-11T03:06:49.280Z,100.00
2023-02-11T03:09:25.965Z,100.00
2023-02-11T03:11:52.958Z,100.00
2023-02-11T03:14:22.904Z,100.00
2023-02-11T03:16:51.788Z,100.00
2023-02-11T03:19:26.614Z,100.00
2023-02-11T03:21:53.550Z,100.00
2023-02-11T03:24:41.036Z,100.00
2023-02-11T03:27:16.645Z,100.00
2023-02-11T03:29:58.970Z,100.00
2023-02-11T03:32:49.077Z,100.00
2023-02-11T03:35:23.473Z,100.00
2023-02-11T03:38:02.830Z,100.00
2023-02-11T03:40:35.244Z,100.00
2023-02-11T03:43:12.524Z,100.00
2023-02-11T03:45:39.810Z,100.00
2023-02-11T03:48:14.218Z,100.00
2023-02-11T03:50:42.106Z,100.00
2023-02-11T03:53:10.069Z,100.00
2023-02-11T03:55:39.593Z,100.00
2023-02-11T03:58:06.535Z,100.00
2023-02-11T04:00:36.485Z,100.00
2023-02-11T04:03:04.328Z,100.00
2023-02-11T04:05:30.852Z,100.00
2023-02-11T04:07:57.272Z,100.00
2023-02-11T04:10:23.876Z,100.00
2023-02-11T04:12:50.461Z,100.00
2023-02-11T04:15:16.948Z,100.00
2023-02-11T04:17:44.834Z,100.00
2023-02-11T04:20:11.848Z,100.00
2023-02-11T04:22:38.308Z,100.00
2023-02-11T04:25:05.928Z,100.00
2023-02-11T04:27:32.545Z,100.00
2023-02-11T04:29:58.963Z,100.00
2023-02-11T04:32:25.376Z,100.00
2023-02-11T04:34:52.007Z,100.00
2023-02-11T04:37:18.476Z,100.00
2023-02-11T04:39:44.916Z,100.00
2023-02-11T04:42:11.384Z,100.00
2023-02-11T04:44:37.885Z,100.00
2023-02-11T04:47:04.328Z,100.00
2023-02-11T04:49:30.778Z,100.00
2023-02-11T04:51:57.196Z,100.00
2023-02-11T04:54:23.614Z,100.00
2023-02-11T04:56:51.142Z,100.00
2023-02-11T04:59:17.648Z,100.00
2023-02-11T05:01:44.115Z,100.00
2023-02-11T05:04:10.685Z,100.00
2023-02-11T05:06:39.734Z,100.00
2023-02-11T05:09:06.169Z,100.00
2023-02-11T05:11:32.676Z,100.00
2023-02-11T05:13:59.144Z,100.00
2023-02-11T05:16:25.671Z,100.00
2023-02-11T05:18:52.692Z,100.00
2023-02-11T05:21:20.245Z,100.00
2023-02-11T05:23:46.883Z,100.00
2023-02-11T05:26:14.106Z,100.00
2023-02-11T05:28:41.223Z,100.00
2023-02-11T05:31:08.942Z,100.00
2023-02-11T05:33:35.407Z,100.00
2023-02-11T05:36:08.301Z,100.00
2023-02-11T05:38:35.255Z,100.00
2023-02-11T05:41:02.116Z,100.00
2023-02-11T05:43:28.626Z,100.00
2023-02-11T05:45:55.214Z,100.00
2023-02-11T05:48:21.756Z,100.00
2023-02-11T05:50:48.215Z,100.00
2023-02-11T05:53:15.093Z,100.00
2023-02-11T05:55:41.850Z,100.00
2023-02-11T05:58:08.373Z,100.00
2023-02-11T06:00:35.810Z,100.00
2023-02-11T06:03:04.162Z,100.00
2023-02-11T06:05:30.965Z,100.00
2023-02-11T06:07:57.464Z,100.00
2023-02-11T06:10:23.954Z,100.00
2023-02-11T06:12:50.367Z,100.00
2023-02-11T06:15:16.875Z,100.00
2023-02-11T06:17:43.532Z,100.00
2023-02-11T06:20:10.950Z,100.00
2023-02-11T06:22:37.983Z,100.00
2023-02-11T06:25:05.024Z,100.00
2023-02-11T06:27:31.477Z,100.00
2023-02-11T06:29:57.954Z,100.00
2023-02-11T06:32:42.876Z,100.00
2023-02-11T06:35:12.057Z,100.00
2023-02-11T06:37:39.210Z,100.00
2023-02-11T06:40:06.320Z,100.00
2023-02-11T06:42:32.850Z,100.00
2023-02-11T06:44:59.261Z,100.00
2023-02-11T06:47:25.784Z,100.00
2023-02-11T06:49:52.210Z,100.00
2023-02-11T06:52:18.644Z,100.00
2023-02-11T06:54:45.034Z,100.00
2023-02-11T06:57:11.599Z,100.00
2023-02-11T06:59:37.988Z,100.00
2023-02-11T07:02:04.476Z,100.00
2023-02-11T07:04:31.155Z,100.00
2023-02-11T07:06:57.561Z,100.00
2023-02-11T07:09:23.962Z,100.00
2023-02-11T07:11:50.327Z,100.00
2023-02-11T07:14:16.976Z,100.00
2023-02-11T07:16:43.453Z,100.00
2023-02-11T07:19:10.088Z,100.00
2023-02-11T07:21:36.552Z,100.00
2023-02-11T07:24:08.893Z,100.00
2023-02-11T07:26:37.209Z,100.00
2023-02-11T07:29:03.598Z,100.00
2023-02-11T07:31:30.903Z,100.00
2023-02-11T07:34:01.121Z,100.00
2023-02-11T07:36:29.790Z,100.00
2023-02-11T07:38:56.230Z,100.00
2023-02-11T07:41:23.893Z,100.00
2023-02-11T07:43:50.813Z,100.00
2023-02-11T07:46:23.328Z,100.00
2023-02-11T07:48:50.527Z,100.00
2023-02-11T07:51:28.486Z,100.00
2023-02-11T07:53:57.417Z,100.00
2023-02-11T07:56:24.608Z,100.00
2023-02-11T07:58:51.850Z,100.00
2023-02-11T08:01:24.944Z,100.00
2023-02-11T08:03:51.778Z,100.00
2023-02-11T08:06:20.303Z,100.00
2023-02-11T08:08:47.131Z,100.00
2023-02-11T08:11:22.932Z,100.00
2023-02-11T08:13:49.389Z,100.00
2023-02-11T08:16:23.680Z,100.00
2023-02-11T08:18:51.075Z,100.00
2023-02-11T08:21:18.581Z,100.00
2023-02-11T08:23:46.253Z,100.00
2023-02-11T08:26:16.224Z,100.00
2023-02-11T08:28:44.271Z,100.00
2023-02-11T08:31:16.898Z,100.00
2023-02-11T08:33:44.114Z,100.00
2023-02-11T08:36:15.698Z,100.00
2023-02-11T08:38:42.576Z,100.00
2023-02-11T08:41:09.843Z,100.00
2023-02-11T08:43:37.215Z,100.00
2023-02-11T08:46:04.085Z,100.00
2023-02-11T08:48:30.647Z,100.00
2023-02-11T08:50:57.690Z,100.00
2023-02-11T08:53:24.468Z,100.00
2023-02-11T08:55:55.446Z,100.00
2023-02-11T08:58:22.425Z,100.00
2023-02-11T09:00:49.894Z,100.00
2023-02-11T09:03:17.884Z,100.00
2023-02-11T09:05:47.494Z,100.00
2023-02-11T09:08:14.446Z,100.00
2023-02-11T09:10:40.884Z,100.00
2023-02-11T09:13:07.913Z,100.00
2023-02-11T09:15:34.596Z,100.00
2023-02-11T09:18:01.692Z,100.00
2023-02-11T09:20:28.280Z,100.00
2023-02-11T09:22:56.939Z,100.00
2023-02-11T09:25:23.385Z,100.00
2023-02-11T09:27:51.282Z,100.00
2023-02-11T09:30:17.939Z,100.00
2023-02-11T09:32:44.372Z,100.00
2023-02-11T09:35:10.874Z,100.00
2023-02-11T09:37:37.569Z,100.00
2023-02-11T09:40:04.761Z,100.00
2023-02-11T09:42:46.391Z,100.00
2023-02-11T09:45:17.710Z,100.00
2023-02-11T09:47:50.855Z,100.00
2023-02-11T09:50:28.045Z,100.00
2023-02-11T09:53:02.304Z,99.82
2023-02-11T09:55:37.935Z,99.48
2023-02-11T09:58:11.729Z,99.36
2023-02-11T10:00:49.689Z,99.20
2023-02-11T10:03:43.940Z,99.01
2023-02-11T10:06:33.850Z,97.77
2023-02-11T10:09:18.705Z,98.14
2023-02-11T10:11:53.662Z,98.09
2023-02-11T10:14:43.945Z,97.53
2023-02-11T10:17:19.324Z,97.36
2023-02-11T10:20:06.828Z,97.21
2023-02-11T10:22:43.077Z,96.68
2023-02-11T10:25:40.266Z,96.14
2023-02-11T10:28:17.011Z,95.47
2023-02-11T10:30:59.503Z,95.37
2023-02-11T10:33:47.311Z,94.87
2023-02-11T10:36:17.755Z,93.98
2023-02-11T10:38:44.406Z,93.99
2023-02-11T10:41:18.069Z,93.38
2023-02-11T10:43:44.562Z,92.45
2023-02-11T10:46:18.328Z,92.61
2023-02-11T10:48:51.425Z,92.37
2023-02-11T10:51:23.628Z,91.99
2023-02-11T10:54:19.397Z,92.24
2023-02-11T10:56:47.416Z,92.21
2023-02-11T10:59:45.858Z,92.31
2023-02-11T11:02:23.708Z,92.41
2023-02-11T11:04:57.526Z,92.30
2023-02-11T11:07:30.356Z,91.90
2023-02-11T11:10:08.401Z,91.50
2023-02-11T11:12:53.035Z,91.02
2023-02-11T11:15:21.711Z,90.42
2023-02-11T11:18:21.536Z,89.82
2023-02-11T11:21:18.208Z,89.77
2023-02-11T11:23:57.342Z,90.10
2023-02-11T11:26:29.886Z,89.84
2023-02-11T11:29:11.697Z,88.79
2023-02-11T11:31:51.505Z,89.00
2023-02-11T11:34:29.928Z,88.96
2023-02-11T11:36:58.243Z,88.66
2023-02-11T11:39:26.568Z,88.07
2023-02-11T11:41:58.482Z,88.25
2023-02-11T11:44:56.537Z,88.20
2023-02-11T11:47:30.886Z,87.40
2023-02-11T11:50:23.453Z,87.78
2023-02-11T11:53:00.115Z,87.80
2023-02-11T11:55:35.642Z,87.21
2023-02-11T11:58:02.156Z,86.90
2023-02-11T12:00:35.244Z,87.12
2023-02-11T12:03:27.655Z,86.74
2023-02-11T12:06:20.934Z,86.96
2023-02-11T12:09:15.287Z,86.18
2023-02-11T12:12:02.446Z,86.33
2023-02-11T12:14:43.348Z,86.20
2023-02-11T12:17:31.762Z,85.52
2023-02-11T12:20:39.752Z,85.13
2023-02-11T12:23:28.968Z,84.80
2023-02-11T12:26:01.045Z,84.58
2023-02-11T12:28:38.497Z,84.06
2023-02-11T12:31:07.935Z,83.69
2023-02-11T12:33:58.395Z,83.23
2023-02-11T12:36:54.280Z,82.19
2023-02-11T12:39:32.917Z,82.20
2023-02-11T12:42:30.575Z,81.79
2023-02-11T12:45:02.878Z,81.94
2023-02-11T12:47:51.242Z,82.38
2023-02-11T12:50:36.277Z,80.56
2023-02-11T12:53:05.766Z,80.75
2023-02-11T12:55:40.402Z,81.42
2023-02-11T12:58:15.581Z,81.72
2023-02-11T13:00:46.549Z,81.00
2023-02-11T13:03:18.447Z,81.22
2023-02-11T13:05:52.922Z,80.51
2023-02-11T13:08:28.696Z,80.31
2023-02-11T13:10:59.174Z,80.22
2023-02-11T13:13:30.746Z,79.31
2023-02-11T13:16:09.215Z,79.46
2023-02-11T13:19:17.848Z,79.11
2023-02-11T13:22:08.710Z,78.92
2023-02-11T13:24:46.428Z,79.14
2023-02-11T13:27:30.263Z,79.03
2023-02-11T13:30:34.576Z,79.47
2023-02-11T13:33:01.039Z,79.03
2023-02-11T13:35:32.002Z,78.55
2023-02-11T13:38:04.775Z,79.07
2023-02-11T13:40:39.264Z,79.07
2023-02-11T13:43:19.977Z,78.78
2023-02-11T13:45:49.249Z,78.46
2023-02-11T13:48:21.856Z,78.32
2023-02-11T13:50:51.629Z,77.92
2023-02-11T13:53:18.805Z,78.32
2023-02-11T13:55:47.777Z,77.33
2023-02-11T13:58:14.142Z,77.47
2023-02-11T14:00:40.471Z,77.44
2023-02-11T14:03:31.868Z,78.11
2023-02-11T14:06:29.330Z,78.80
2023-02-11T14:09:08.906Z,79.14
2023-02-11T14:11:41.856Z,79.39
2023-02-11T14:14:08.168Z,79.47
2023-02-11T14:16:38.506Z,79.84
2023-02-11T14:19:06.712Z,79.42
2023-02-11T14:21:36.593Z,79.19
2023-02-11T14:24:04.754Z,78.69
2023-02-11T14:27:00.376Z,79.47
2023-02-11T14:29:35.756Z,79.31
2023-02-11T14:32:41.121Z,79.93
2023-02-11T14:35:26.375Z,79.88
2023-02-11T14:38:03.825Z,79.72
2023-02-11T14:40:38.844Z,79.51
2023-02-11T14:43:17.795Z,79.40
2023-02-11T14:45:49.821Z,79.30
2023-02-11T14:48:18.344Z,79.68
2023-02-11T14:50:46.855Z,79.56
2023-02-11T14:53:18.491Z,79.40
2023-02-11T14:55:48.660Z,79.49
2023-02-11T14:58:22.645Z,80.08
2023-02-11T15:00:52.358Z,80.08
2023-02-11T15:03:36.618Z,80.17
2023-02-11T15:06:07.807Z,80.26
2023-02-11T15:08:37.452Z,80.15
2023-02-11T15:11:10.381Z,80.03
2023-02-11T15:13:37.897Z,80.26
2023-02-11T15:16:07.736Z,80.80
2023-02-11T15:18:39.702Z,81.12
2023-02-11T15:21:07.508Z,81.53
2023-02-11T15:23:34.418Z,81.44
2023-02-11T15:26:05.388Z,81.69
2023-02-11T15:28:34.372Z,81.73
2023-02-11T15:31:06.368Z,81.82
2023-02-11T15:33:33.166Z,82.18
2023-02-11T15:36:01.646Z,82.83
2023-02-11T15:38:29.839Z,82.95
2023-02-11T15:41:02.068Z,83.11
2023-02-11T15:43:48.079Z,83.46
2023-02-11T15:46:18.914Z,83.81
2023-02-11T15:48:49.376Z,84.08
2023-02-11T15:51:39.817Z,84.32
2023-02-11T15:54:16.413Z,84.58
2023-02-11T15:56:45.418Z,84.71
2023-02-11T15:59:17.069Z,85.15
2023-02-11T16:01:45.391Z,85.35
2023-02-11T16:04:24.456Z,85.64
2023-02-11T16:06:51.295Z,86.20
2023-02-11T16:09:34.399Z,86.36
2023-02-11T16:12:23.076Z,86.50
2023-02-11T16:14:49.514Z,87.01
2023-02-11T16:17:18.914Z,87.10
2023-02-11T16:19:48.562Z,87.53
2023-02-11T16:22:22.936Z,87.62
2023-02-11T16:24:52.718Z,87.88
2023-02-11T16:27:28.529Z,88.14
2023-02-11T16:29:55.385Z,88.39
2023-02-11T16:32:29.984Z,88.34
2023-02-11T16:34:58.972Z,88.61
2023-02-11T16:37:25.899Z,88.66
2023-02-11T16:39:58.553Z,88.88
2023-02-11T16:42:25.305Z,88.69
2023-02-11T16:44:51.721Z,88.91
2023-02-11T16:47:24.353Z,89.00
2023-02-11T16:49:51.018Z,89.17
2023-02-11T16:52:18.151Z,88.98
2023-02-11T16:54:44.577Z,89.28
2023-02-11T16:57:19.614Z,89.16
2023-02-11T16:59:46.646Z,89.03
2023-02-11T17:02:17.012Z,89.30
2023-02-11T17:04:44.143Z,89.20
2023-02-11T17:07:10.572Z,89.44
2023-02-11T17:09:36.997Z,89.55
2023-02-11T17:12:03.493Z,89.62
2023-02-11T17:14:29.905Z,89.82
2023-02-11T17:16:56.619Z,90.07
2023-02-11T17:19:23.662Z,90.13
2023-02-11T17:21:52.426Z,90.15
2023-02-11T17:24:20.825Z,90.35
2023-02-11T17:26:47.992Z,90.23
2023-02-11T17:29:19.915Z,90.33
2023-02-11T17:31:46.424Z,90.68
2023-02-11T17:34:13.008Z,90.85
2023-02-11T17:36:41.299Z,90.99
2023-02-11T17:39:08.642Z,91.13
2023-02-11T17:41:38.824Z,91.36
2023-02-11T17:44:06.383Z,91.47
2023-02-11T17:46:34.523Z,91.45
2023-02-11T17:49:01.994Z,91.62
2023-02-11T17:51:30.159Z,91.67
2023-02-11T17:54:02.519Z,91.86
2023-02-11T17:56:31.477Z,92.07
2023-02-11T17:58:57.965Z,92.24
2023-02-11T18:01:27.995Z,92.26
2023-02-11T18:03:54.459Z,92.47
2023-02-11T18:06:21.623Z,92.64
2023-02-11T18:08:48.391Z,92.49
2023-02-11T18:11:17.745Z,92.71
2023-02-11T18:13:45.472Z,92.52
2023-02-11T18:16:15.813Z,93.00
2023-02-11T18:18:43.326Z,93.18
2023-02-11T18:21:18.055Z,93.23
2023-02-11T18:23:45.209Z,93.29
2023-02-11T18:26:13.593Z,93.45
2023-02-11T18:28:41.468Z,93.41
2023-02-11T18:31:10.157Z,93.47
2023-02-11T18:33:38.930Z,93.65
2023-02-11T18:36:06.939Z,93.77
2023-02-11T18:38:33.718Z,93.66
2023-02-11T18:41:00.223Z,94.06
2023-02-11T18:43:31.674Z,94.00
2023-02-11T18:45:58.241Z,94.18
2023-02-11T18:48:27.019Z,94.21
2023-02-11T18:50:54.884Z,94.18
2023-02-11T18:53:22.329Z,94.30
2023-02-11T18:55:49.049Z,94.28
2023-02-11T18:58:15.654Z,94.36
2023-02-11T19:00:45.180Z,94.40
2023-02-11T19:03:11.710Z,94.36
2023-02-11T19:05:49.535Z,94.65
2023-02-11T19:08:17.127Z,94.81
2023-02-11T19:10:46.178Z,94.64
2023-02-11T19:13:13.545Z,94.60
2023-02-11T19:15:45.338Z,94.71
2023-02-11T19:18:13.401Z,94.84
2023-02-11T19:20:41.224Z,94.63
2023-02-11T19:23:07.743Z,94.74
2023-02-11T19:25:34.575Z,94.86
2023-02-11T19:28:01.071Z,94.82
2023-02-11T19:30:28.008Z,94.95
2023-02-11T19:32:57.060Z,94.97
2023-02-11T19:35:24.617Z,94.88
2023-02-11T19:37:52.213Z,94.84
2023-02-11T19:40:21.076Z,94.79
2023-02-11T19:42:47.461Z,94.97
2023-02-11T19:45:13.836Z,94.96
2023-02-11T19:47:40.284Z,94.87
2023-02-11T19:50:07.368Z,94.86
2023-02-11T19:52:33.905Z,95.00
2023-02-11T19:55:00.829Z,94.90
2023-02-11T19:57:27.225Z,95.16
2023-02-11T19:59:54.955Z,95.10
2023-02-11T20:02:21.519Z,95.22
2023-02-11T20:04:48.446Z,95.01
2023-02-11T20:07:15.139Z,95.38
2023-02-11T20:09:42.561Z,95.34
2023-02-11T20:12:09.678Z,95.35
2023-02-11T20:14:36.127Z,95.45
2023-02-11T20:17:02.668Z,95.49
2023-02-11T20:19:30.587Z,95.47
2023-02-11T20:21:57.234Z,95.66
2023-02-11T20:24:25.217Z,95.47
2023-02-11T20:26:55.537Z,95.79
2023-02-11T20:29:22.870Z,95.98
2023-02-11T20:31:50.108Z,95.84
2023-02-11T20:34:17.801Z,95.93
2023-02-11T20:36:51.330Z,95.80
2023-02-11T20:39:18.688Z,95.59
2023-02-11T20:41:46.326Z,95.91
2023-02-11T20:44:13.514Z,95.90
2023-02-11T20:46:42.468Z,95.91
2023-02-11T20:49:14.417Z,95.91
2023-02-11T20:51:42.055Z,95.97
2023-02-11T20:54:13.108Z,96.26
2023-02-11T20:56:39.563Z,96.16
2023-02-11T20:59:06.637Z,96.49
2023-02-11T21:01:44.837Z,96.34
2023-02-11T21:04:18.017Z,96.45
2023-02-11T21:06:47.346Z,96.49
2023-02-11T21:09:17.567Z,96.55
2023-02-11T21:11:43.990Z,96.53
2023-02-11T21:14:11.992Z,96.55
2023-02-11T21:16:39.480Z,96.75
2023-02-11T21:19:06.178Z,96.76
2023-02-11T21:21:34.309Z,96.60
2023-02-11T21:24:00.870Z,96.67
2023-02-11T21:26:28.588Z,96.76
2023-02-11T21:28:55.283Z,96.67
2023-02-11T21:31:26.268Z,96.55
2023-02-11T21:33:56.712Z,96.91
2023-02-11T21:36:23.655Z,96.95
2023-02-11T21:38:51.026Z,96.85
2023-02-11T21:41:18.962Z,96.73
2023-02-11T21:43:45.766Z,96.96
2023-02-11T21:46:15.110Z,96.79
2023-02-11T21:48:41.982Z,96.82
2023-02-11T21:51:12.719Z,97.18
2023-02-11T21:53:39.333Z,96.95
2023-02-11T21:56:15.080Z,97.09
2023-02-11T21:58:41.779Z,96.69
2023-02-11T22:01:17.375Z,97.21
2023-02-11T22:03:45.026Z,97.33
2023-02-11T22:06:13.889Z,97.42
2023-02-11T22:08:41.079Z,97.50
2023-02-11T22:11:10.663Z,97.38
2023-02-11T22:13:37.354Z,97.43
2023-02-11T22:16:06.658Z,97.59
2023-02-11T22:18:33.407Z,97.68
2023-02-11T22:21:12.289Z,97.38
2023-02-11T22:23:39.470Z,97.66
2023-02-11T22:26:08.942Z,97.50
2023-02-11T22:28:37.072Z,97.67
2023-02-11T22:31:03.831Z,97.76
2023-02-11T22:33:30.644Z,97.39
2023-02-11T22:36:07.546Z,97.64
2023-02-11T22:38:34.837Z,97.74
2023-02-11T22:41:06.542Z,97.63
2023-02-11T22:43:32.962Z,97.58
2023-02-11T22:46:05.051Z,97.62
2023-02-11T22:48:32.027Z,97.73
2023-02-11T22:51:05.132Z,97.79
2023-02-11T22:53:31.652Z,97.71
2023-02-11T22:56:15.043Z,97.88
2023-02-11T22:58:41.985Z,97.84
2023-02-11T23:01:08.529Z,97.66
2023-02-11T23:03:35.706Z,97.79
2023-02-11T23:06:02.303Z,97.60
2023-02-11T23:08:30.306Z,97.69
2023-02-11T23:11:03.370Z,97.68
2023-02-11T23:13:29.881Z,97.66
2023-02-11T23:15:56.774Z,97.48
2023-02-11T23:18:23.370Z,97.62
2023-02-11T23:20:49.752Z,97.53
2023-02-11T23:23:16.689Z,97.79
2023-02-11T23:25:44.212Z,97.75
2023-02-11T23:28:11.691Z,97.84
2023-02-11T23:30:38.581Z,97.62
2023-02-11T23:33:05.054Z,98.01
2023-02-11T23:35:31.591Z,97.82
2023-02-11T23:37:58.027Z,98.04
2023-02-11T23:40:24.516Z,98.10
2023-02-11T23:42:51.775Z,98.06
2023-02-11T23:45:18.588Z,98.08
2023-02-11T23:47:45.102Z,98.12
2023-02-11T23:50:11.747Z,98.03
2023-02-11T23:52:38.171Z,98.57
2023-02-11T23:55:05.082Z,98.55
2023-02-11T23:57:32.856Z,98.51
